Time;durP1;ratioP1;P1;durP2;ratioP2;P2;SDS_P1;SDS_P2;PMS_P1;PMS_P2;Temp;Humidity;BMP_temperature;BMP_pressure;BME280_temperature;BME280_humidity;BME280_pressure;Samples;Min_cycle;Max_cycle;Signal;HPM_P1;HPM_P2
2023/03/21 00:00:36;;;;;;;;;;;22.10;99.90;;;;;;5037557;28;20281;-68
2023/03/21 00:03:03;;;;;;;;;;;22.10;99.90;;;;;;5038359;28;19964;-69
2023/03/21 00:05:30;;;;;;;;;;;22.20;99.90;;;;;;5039838;28;19967;-67
2023/03/21 00:07:57;;;;;;;;;;;22.30;99.90;;;;;;5039001;28;19913;-67
2023/03/21 00:10:23;;;;;;;;;;;22.40;99.90;;;;;;5039343;28;19909;-70
2023/03/21 00:12:54;;;;;;;;;;;22.40;99.10;;;;;;5041386;28;19923;-70
2023/03/21 00:15:20;;;;;;;;;;;22.30;98.80;;;;;;5038964;28;19917;-68
2023/03/21 00:17:49;;;;;;;;;;;22.30;99.10;;;;;;5038661;28;19941;-69
2023/03/21 00:20:16;;;;;;;;;;;22.30;98.90;;;;;;5038380;28;19912;-66
2023/03/21 00:22:42;;;;;;;;;;;22.40;99.40;;;;;;5039152;28;19921;-67
2023/03/21 00:25:09;;;;;;;;;;;22.40;99.70;;;;;;5038251;28;19917;-67
2023/03/21 00:27:36;;;;;;;;;;;22.40;99.30;;;;;;5039583;28;19958;-67
2023/03/21 00:30:04;;;;;;;;;;;22.50;99.90;;;;;;5038657;28;19913;-67
2023/03/21 00:32:30;;;;;;;;;;;22.50;99.40;;;;;;5049342;28;19955;-67
2023/03/21 00:34:57;;;;;;;;;;;22.60;99.10;;;;;;5038489;28;20217;-67
2023/03/21 00:37:24;;;;;;;;;;;22.70;99.20;;;;;;5038882;28;19916;-69
2023/03/21 00:39:50;;;;;;;;;;;22.50;99.70;;;;;;5039212;28;19952;-68
2023/03/21 00:42:18;;;;;;;;;;;22.40;99.80;;;;;;5040468;28;19928;-70
2023/03/21 00:44:44;;;;;;;;;;;22.30;99.90;;;;;;5039618;28;19927;-67
2023/03/21 00:47:12;;;;;;;;;;;22.30;99.90;;;;;;5038994;28;20453;-67
2023/03/21 00:49:39;;;;;;;;;;;22.20;99.50;;;;;;5039816;28;20389;-66
2023/03/21 00:52:07;;;;;;;;;;;22.20;99.90;;;;;;5049621;28;20352;-69
2023/03/21 00:54:35;;;;;;;;;;;22.30;99.90;;;;;;5038542;28;20419;-68
2023/03/21 00:57:02;;;;;;;;;;;22.40;99.90;;;;;;5038535;28;19915;-66
2023/03/21 00:59:29;;;;;;;;;;;22.60;99.90;;;;;;5039693;28;19916;-68
2023/03/21 01:01:59;;;;;;;;;;;22.70;99.00;;;;;;5042719;28;20289;-67
2023/03/21 01:04:25;;;;;;;;;;;22.80;98.90;;;;;;5038080;28;20277;-65
2023/03/21 01:06:52;;;;;;;;;;;22.90;97.50;;;;;;5038237;28;19915;-68
2023/03/21 01:09:21;;;;;;;;;;;22.70;97.20;;;;;;5039841;28;20007;-68
2023/03/21 01:11:48;;;;;;;;;;;22.80;97.40;;;;;;5050116;28;20003;-69
2023/03/21 01:14:15;;;;;;;;;;;22.90;97.20;;;;;;5041058;28;19909;-66
2023/03/21 01:16:42;;;;;;;;;;;23.00;97.20;;;;;;5037511;28;19955;-68
2023/03/21 01:19:11;;;;;;;;;;;23.10;97.30;;;;;;5038051;28;20500;-69
2023/03/21 01:21:38;;;;;;;;;;;23.10;97.10;;;;;;5047481;28;20394;-68
2023/03/21 01:24:05;;;;;;;;;;;23.20;96.80;;;;;;5074593;28;19916;-68
2023/03/21 01:26:31;;;;;;;;;;;23.30;96.80;;;;;;5038219;28;19908;-67
2023/03/21 01:28:58;;;;;;;;;;;23.40;96.50;;;;;;5038339;28;19962;-66
2023/03/21 01:31:25;;;;;;;;;;;23.50;96.50;;;;;;5037755;28;19913;-66
2023/03/21 01:33:52;;;;;;;;;;;23.60;96.90;;;;;;5038095;28;20361;-68
2023/03/21 01:36:22;;;;;;;;;;;23.70;96.10;;;;;;5038504;28;19915;-68
2023/03/21 01:38:49;;;;;;;;;;;23.80;96.60;;;;;;5038839;28;19916;-68
2023/03/21 01:41:25;;;;;;;;;;;23.70;96.20;;;;;;5038618;28;20301;-67
2023/03/21 01:43:52;;;;;;;;;;;23.60;96.10;;;;;;5037711;28;19923;-68
2023/03/21 01:46:27;;;;;;;;;;;23.50;96.10;;;;;;5040164;28;19912;-68
2023/03/21 01:49:02;;;;;;;;;;;23.40;96.20;;;;;;5042940;28;19912;-69
2023/03/21 01:51:31;;;;;;;;;;;23.30;96.40;;;;;;5042026;28;19919;-66
2023/03/21 01:53:59;;;;;;;;;;;23.30;96.20;;;;;;5042996;28;19913;-68
2023/03/21 01:56:28;;;;;;;;;;;23.30;96.70;;;;;;5042103;28;19996;-67
2023/03/21 01:58:58;;;;;;;;;;;23.30;97.00;;;;;;5043332;28;20388;-70
2023/03/21 02:01:24;;;;;;;;;;;23.40;96.50;;;;;;5041590;28;20424;-68
2023/03/21 02:03:51;;;;;;;;;;;23.30;96.40;;;;;;5041778;28;20019;-67
2023/03/21 02:06:30;;;;;;;;;;;23.20;96.70;;;;;;5032610;28;19935;-68
2023/03/21 02:08:59;;;;;;;;;;;23.20;96.70;;;;;;5043345;28;19970;-68
2023/03/21 02:11:25;;;;;;;;;;;23.00;97.00;;;;;;5033609;28;19956;-66
2023/03/21 02:13:53;;;;;;;;;;;22.90;97.60;;;;;;5041961;28;20207;-68
2023/03/21 02:16:29;;;;;;;;;;;22.90;97.20;;;;;;5041403;28;20648;-68
2023/03/21 02:19:18;;;;;;;;;;;22.90;97.40;;;;;;5042012;28;19909;-67
2023/03/21 02:22:04;;;;;;;;;;;22.90;97.30;;;;;;5039883;28;19947;-69
2023/03/21 02:24:35;;;;;;;;;;;22.80;97.80;;;;;;5033908;28;20011;-66
2023/03/21 02:27:13;;;;;;;;;;;22.90;98.00;;;;;;5041113;28;19920;-69
2023/03/21 02:29:45;;;;;;;;;;;22.90;97.80;;;;;;5039808;28;20388;-70
2023/03/21 02:32:30;;;;;;;;;;;23.00;97.40;;;;;;5040841;28;19919;-68
2023/03/21 02:35:03;;;;;;;;;;;23.00;97.20;;;;;;5041410;28;20293;-67
2023/03/21 02:37:50;;;;;;;;;;;23.20;97.20;;;;;;5040504;28;19917;-68
2023/03/21 02:40:16;;;;;;;;;;;23.20;96.80;;;;;;5041033;28;20442;-69
2023/03/21 02:42:46;;;;;;;;;;;23.30;96.60;;;;;;5041382;28;19917;-69
2023/03/21 02:45:13;;;;;;;;;;;23.30;96.60;;;;;;5041030;28;20416;-68
2023/03/21 02:47:46;;;;;;;;;;;23.60;96.50;;;;;;5040846;28;19908;-69
2023/03/21 02:50:45;;;;;;;;;;;23.80;95.90;;;;;;5041338;28;19924;-67
2023/03/21 02:53:13;;;;;;;;;;;23.80;96.10;;;;;;5050619;28;19915;-69
2023/03/21 02:55:41;;;;;;;;;;;23.90;95.90;;;;;;5040729;28;20580;-73
2023/03/21 02:58:13;;;;;;;;;;;24.00;96.20;;;;;;5041223;28;19979;-67
2023/03/21 03:00:42;;;;;;;;;;;24.10;96.00;;;;;;5039565;28;19912;-68
2023/03/21 03:03:08;;;;;;;;;;;24.20;95.80;;;;;;5040822;28;19909;-70
2023/03/21 03:05:36;;;;;;;;;;;24.40;95.20;;;;;;5040773;28;20022;-65
2023/03/21 03:08:06;;;;;;;;;;;24.20;95.00;;;;;;5040630;28;19920;-67
2023/03/21 03:10:51;;;;;;;;;;;24.30;95.30;;;;;;5040180;28;19913;-68
2023/03/21 03:13:20;;;;;;;;;;;24.50;95.10;;;;;;5034820;28;19913;-68
2023/03/21 03:16:00;;;;;;;;;;;24.80;94.70;;;;;;5040379;28;20015;-68
2023/03/21 03:18:45;;;;;;;;;;;25.00;93.80;;;;;;5040318;28;19952;-67
2023/03/21 03:21:18;;;;;;;;;;;25.80;93.40;;;;;;5040524;28;20497;-71
2023/03/21 03:23:48;;;;;;;;;;;26.70;91.90;;;;;;5039850;28;20004;-68
2023/03/21 03:26:22;;;;;;;;;;;27.30;92.00;;;;;;5037013;28;19927;-69
2023/03/21 03:28:51;;;;;;;;;;;27.50;91.40;;;;;;5040399;28;19956;-67
2023/03/21 03:31:25;;;;;;;;;;;27.70;90.30;;;;;;5040385;28;20015;-66
2023/03/21 03:33:55;;;;;;;;;;;27.40;91.20;;;;;;5040930;28;19913;-68
2023/03/21 03:36:23;;;;;;;;;;;27.50;90.30;;;;;;5040250;28;20289;-67
2023/03/21 03:38:50;;;;;;;;;;;27.30;89.40;;;;;;5040497;28;19948;-69
2023/03/21 03:41:20;;;;;;;;;;;26.90;90.30;;;;;;5039478;28;19927;-68
2023/03/21 03:43:50;;;;;;;;;;;26.60;90.60;;;;;;5039552;28;19975;-68
2023/03/21 03:46:26;;;;;;;;;;;26.40;91.10;;;;;;5039368;28;19919;-68
2023/03/21 03:48:55;;;;;;;;;;;26.20;91.30;;;;;;5040632;28;20356;-65
2023/03/21 03:51:27;;;;;;;;;;;26.10;91.90;;;;;;5038905;28;19988;-66
2023/03/21 03:54:19;;;;;;;;;;;25.80;91.60;;;;;;5040494;28;19908;-66
2023/03/21 03:56:46;;;;;;;;;;;25.40;92.40;;;;;;5037993;28;20329;-65
2023/03/21 03:59:18;;;;;;;;;;;25.10;92.90;;;;;;5039852;28;20012;-69
2023/03/21 04:01:45;;;;;;;;;;;24.80;93.70;;;;;;5038650;28;20363;-65
2023/03/21 04:04:12;;;;;;;;;;;24.60;93.80;;;;;;5039748;28;19919;-69
2023/03/21 04:06:39;;;;;;;;;;;24.50;93.80;;;;;;5038663;28;19921;-65
2023/03/21 04:09:07;;;;;;;;;;;24.30;94.40;;;;;;5035327;28;19919;-67
2023/03/21 04:11:33;;;;;;;;;;;24.20;94.00;;;;;;5038421;28;19974;-68
2023/03/21 04:14:00;;;;;;;;;;;24.10;94.20;;;;;;5040038;28;19909;-66
2023/03/21 04:16:27;;;;;;;;;;;24.10;94.20;;;;;;5038632;28;20360;-68
2023/03/21 04:18:53;;;;;;;;;;;24.10;94.40;;;;;;5038759;28;19912;-68
2023/03/21 04:21:20;;;;;;;;;;;24.00;94.40;;;;;;5039122;28;19924;-69
2023/03/21 04:23:47;;;;;;;;;;;24.00;94.20;;;;;;5039144;28;20007;-68
2023/03/21 04:26:14;;;;;;;;;;;24.00;94.90;;;;;;5039531;28;19947;-67
2023/03/21 04:28:40;;;;;;;;;;;24.00;94.70;;;;;;5038449;28;19916;-68
2023/03/21 04:31:12;;;;;;;;;;;24.20;94.70;;;;;;5039602;28;19928;-68
2023/03/21 04:33:39;;;;;;;;;;;24.20;95.20;;;;;;5038486;28;19923;-67
2023/03/21 04:36:08;;;;;;;;;;;24.10;94.70;;;;;;5039536;28;20007;-69
2023/03/21 04:38:35;;;;;;;;;;;24.00;94.70;;;;;;5036267;28;19920;-67
2023/03/21 04:41:02;;;;;;;;;;;24.00;94.80;;;;;;5039140;28;20329;-68
2023/03/21 04:43:29;;;;;;;;;;;24.00;94.90;;;;;;5037553;28;19909;-68
2023/03/21 04:45:56;;;;;;;;;;;24.00;94.50;;;;;;5038257;28;19913;-66
2023/03/21 04:48:23;;;;;;;;;;;24.00;94.80;;;;;;5038090;28;20373;-67
2023/03/21 04:50:50;;;;;;;;;;;23.90;94.80;;;;;;5036696;28;19943;-67
2023/03/21 04:53:17;;;;;;;;;;;24.10;94.50;;;;;;5036524;28;19923;-68
2023/03/21 04:55:44;;;;;;;;;;;24.00;94.40;;;;;;5037902;28;20007;-65
2023/03/21 04:58:10;;;;;;;;;;;24.10;95.20;;;;;;5037958;28;20323;-66
2023/03/21 05:00:37;;;;;;;;;;;24.10;94.40;;;;;;5038218;28;19915;-67
2023/03/21 05:03:07;;;;;;;;;;;24.10;94.60;;;;;;5038736;28;19917;-67
2023/03/21 05:05:35;;;;;;;;;;;24.00;94.40;;;;;;5038181;28;20008;-66
2023/03/21 05:08:02;;;;;;;;;;;23.90;94.90;;;;;;5038198;28;19913;-67
2023/03/21 05:10:29;;;;;;;;;;;23.80;94.70;;;;;;5037741;28;19908;-67
2023/03/21 05:12:56;;;;;;;;;;;23.90;94.70;;;;;;5038575;28;19951;-69
2023/03/21 05:15:22;;;;;;;;;;;23.80;95.50;;;;;;5039214;28;19909;-66
2023/03/21 05:17:49;;;;;;;;;;;23.80;94.80;;;;;;5037644;28;20209;-67
2023/03/21 05:20:16;;;;;;;;;;;23.90;95.60;;;;;;5037757;28;19913;-65
2023/03/21 05:22:45;;;;;;;;;;;23.90;94.90;;;;;;5037092;28;19924;-65
2023/03/21 05:25:12;;;;;;;;;;;23.90;94.80;;;;;;5038120;28;19998;-67
2023/03/21 05:27:43;;;;;;;;;;;23.90;94.60;;;;;;5036662;28;19909;-68
2023/03/21 05:30:12;;;;;;;;;;;23.90;95.00;;;;;;5036720;28;19916;-67
2023/03/21 05:32:39;;;;;;;;;;;23.80;95.60;;;;;;5036718;28;19920;-66
2023/03/21 05:35:06;;;;;;;;;;;23.80;95.30;;;;;;5032468;28;20559;-66
2023/03/21 05:37:32;;;;;;;;;;;23.70;95.60;;;;;;5038082;28;19909;-67
2023/03/21 05:39:59;;;;;;;;;;;23.60;96.40;;;;;;5037725;28;19979;-67
2023/03/21 05:42:26;;;;;;;;;;;23.60;95.80;;;;;;5037059;28;19939;-68
2023/03/21 05:44:52;;;;;;;;;;;23.60;95.70;;;;;;5038712;28;19913;-69
2023/03/21 05:47:19;;;;;;;;;;;23.60;96.20;;;;;;5038791;28;19916;-68
2023/03/21 05:49:46;;;;;;;;;;;23.60;95.80;;;;;;5037297;28;20019;-67
2023/03/21 05:52:13;;;;;;;;;;;23.60;96.20;;;;;;5039309;28;19916;-69
2023/03/21 05:54:39;;;;;;;;;;;23.60;95.50;;;;;;5036392;28;19920;-67
2023/03/21 05:57:06;;;;;;;;;;;23.50;95.70;;;;;;5038584;28;19917;-68
2023/03/21 05:59:33;;;;;;;;;;;23.50;95.70;;;;;;5037132;28;19913;-67
2023/03/21 06:01:59;;;;;;;;;;;23.40;96.00;;;;;;5038574;28;19921;-68
2023/03/21 06:04:26;;;;;;;;;;;23.10;96.30;;;;;;5037642;28;20324;-68
2023/03/21 06:06:53;;;;;;;;;;;23.00;96.50;;;;;;5035778;28;19956;-68
2023/03/21 06:09:21;;;;;;;;;;;23.00;97.60;;;;;;5032962;28;19923;-66
2023/03/21 06:11:48;;;;;;;;;;;22.90;97.30;;;;;;5036844;28;19939;-67
2023/03/21 06:14:15;;;;;;;;;;;22.90;97.20;;;;;;5039270;28;19936;-67
2023/03/21 06:16:42;;;;;;;;;;;22.90;97.10;;;;;;5035329;28;20809;-67
2023/03/21 06:19:09;;;;;;;;;;;22.90;97.60;;;;;;5037888;28;20366;-67
2023/03/21 06:21:35;;;;;;;;;;;22.80;97.30;;;;;;5037009;28;20297;-67
2023/03/21 06:24:02;;;;;;;;;;;22.80;97.20;;;;;;5037729;28;19913;-68
2023/03/21 06:26:29;;;;;;;;;;;22.90;97.30;;;;;;5037149;28;20362;-68
2023/03/21 06:28:56;;;;;;;;;;;22.90;97.20;;;;;;5031201;28;20373;-67
2023/03/21 06:31:25;;;;;;;;;;;22.70;98.10;;;;;;5035720;28;19913;-68
2023/03/21 06:33:52;;;;;;;;;;;22.70;97.70;;;;;;5039013;28;19959;-68
2023/03/21 06:36:19;;;;;;;;;;;22.70;98.50;;;;;;5043069;28;20340;-68
2023/03/21 06:38:45;;;;;;;;;;;22.70;98.70;;;;;;5038974;28;19913;-67
2023/03/21 06:41:12;;;;;;;;;;;22.70;98.30;;;;;;5042272;28;19921;-67
2023/03/21 06:43:39;;;;;;;;;;;22.60;98.40;;;;;;5037376;28;19944;-67
2023/03/21 06:46:05;;;;;;;;;;;22.50;98.60;;;;;;5039784;28;20710;-67
2023/03/21 06:48:32;;;;;;;;;;;22.50;99.10;;;;;;5040620;28;19912;-68
2023/03/21 06:50:59;;;;;;;;;;;22.40;99.10;;;;;;5030360;28;19921;-68
2023/03/21 06:53:28;;;;;;;;;;;22.30;99.40;;;;;;5033362;28;19931;-69
2023/03/21 06:55:56;;;;;;;;;;;22.20;99.50;;;;;;5038180;28;19953;-68
2023/03/21 06:58:24;;;;;;;;;;;22.20;99.60;;;;;;5040575;28;19959;-69
2023/03/21 07:00:51;;;;;;;;;;;22.10;99.70;;;;;;5037412;28;19917;-69
2023/03/21 07:03:18;;;;;;;;;;;22.00;99.80;;;;;;5039573;28;20148;-69
2023/03/21 07:05:45;;;;;;;;;;;22.00;99.90;;;;;;5040885;28;19913;-65
2023/03/21 07:08:13;;;;;;;;;;;21.90;99.90;;;;;;5040248;28;19909;-69
2023/03/21 07:10:40;;;;;;;;;;;22.00;99.80;;;;;;5040446;28;20027;-70
2023/03/21 07:13:07;;;;;;;;;;;21.90;99.80;;;;;;5038033;28;20571;-68
2023/03/21 07:15:36;;;;;;;;;;;21.90;99.90;;;;;;5040089;28;19936;-67
2023/03/21 07:18:04;;;;;;;;;;;21.80;99.60;;;;;;5038921;28;19920;-67
2023/03/21 07:20:31;;;;;;;;;;;21.70;99.70;;;;;;5040811;28;19916;-67
2023/03/21 07:22:58;;;;;;;;;;;21.80;99.90;;;;;;5041314;28;19917;-69
2023/03/21 07:25:24;;;;;;;;;;;21.80;99.90;;;;;;5040078;28;20350;-67
2023/03/21 07:27:51;;;;;;;;;;;21.80;99.90;;;;;;5041045;28;19932;-66
2023/03/21 07:30:18;;;;;;;;;;;21.70;99.90;;;;;;5039367;28;19956;-68
2023/03/21 07:32:46;;;;;;;;;;;21.70;99.90;;;;;;5041539;28;19916;-67
2023/03/21 07:35:14;;;;;;;;;;;21.80;99.90;;;;;;5039369;28;20340;-68
2023/03/21 07:37:41;;;;;;;;;;;21.80;99.90;;;;;;5041708;28;19954;-66
2023/03/21 07:40:09;;;;;;;;;;;21.80;99.90;;;;;;5039295;28;19924;-67
2023/03/21 07:42:36;;;;;;;;;;;21.80;99.90;;;;;;5041898;28;19924;-65
2023/03/21 07:45:03;;;;;;;;;;;21.70;99.90;;;;;;5040020;28;20023;-67
2023/03/21 07:47:30;;;;;;;;;;;21.80;99.90;;;;;;5040691;28;19967;-68
2023/03/21 07:49:57;;;;;;;;;;;21.70;99.90;;;;;;5040501;28;19966;-64
2023/03/21 07:52:24;;;;;;;;;;;21.80;99.90;;;;;;5038992;28;19919;-66
2023/03/21 07:54:51;;;;;;;;;;;21.70;99.90;;;;;;5039957;28;19919;-67
2023/03/21 07:57:17;;;;;;;;;;;21.60;99.90;;;;;;5039155;28;19909;-67
2023/03/21 07:59:44;;;;;;;;;;;21.60;99.90;;;;;;5040281;28;20930;-64
2023/03/21 08:02:15;;;;;;;;;;;21.60;99.90;;;;;;5038247;28;19947;-65
2023/03/21 08:04:42;;;;;;;;;;;21.60;99.90;;;;;;5040107;28;20027;-65
2023/03/21 08:07:09;;;;;;;;;;;21.50;99.90;;;;;;5038641;28;20416;-67
2023/03/21 08:09:36;;;;;;;;;;;21.40;99.90;;;;;;5039830;28;19936;-68
2023/03/21 08:12:03;;;;;;;;;;;21.40;99.90;;;;;;5039044;28;19917;-68
2023/03/21 08:14:30;;;;;;;;;;;21.40;99.90;;;;;;5038048;28;19982;-66
2023/03/21 08:16:57;;;;;;;;;;;21.40;99.90;;;;;;5039528;28;19982;-69
2023/03/21 08:19:23;;;;;;;;;;;21.30;99.90;;;;;;5039165;28;20259;-67
2023/03/21 08:21:59;;;;;;;;;;;21.30;99.90;;;;;;5040702;28;20597;-68
2023/03/21 08:24:27;;;;;;;;;;;21.40;99.90;;;;;;5031621;28;19913;-67
2023/03/21 08:26:54;;;;;;;;;;;21.30;99.90;;;;;;5039741;28;19913;-66
2023/03/21 08:29:21;;;;;;;;;;;21.30;99.90;;;;;;5037377;28;19913;-68
2023/03/21 08:31:48;;;;;;;;;;;21.30;99.90;;;;;;5038849;28;19952;-66
2023/03/21 08:34:16;;;;;;;;;;;21.30;99.90;;;;;;5036368;28;19995;-66
2023/03/21 08:36:43;;;;;;;;;;;21.20;99.90;;;;;;5039233;28;19919;-67
2023/03/21 08:39:10;;;;;;;;;;;21.20;99.90;;;;;;5038992;28;19912;-67
2023/03/21 08:41:37;;;;;;;;;;;21.30;99.90;;;;;;5037482;28;20285;-63
2023/03/21 08:44:05;;;;;;;;;;;21.20;99.90;;;;;;5039600;28;19913;-65
2023/03/21 08:46:35;;;;;;;;;;;21.20;99.90;;;;;;5037069;28;20317;-68
2023/03/21 08:49:02;;;;;;;;;;;21.20;99.90;;;;;;5039480;28;19909;-66
2023/03/21 08:51:30;;;;;;;;;;;21.10;99.90;;;;;;5038322;28;19912;-67
2023/03/21 08:53:57;;;;;;;;;;;21.10;99.90;;;;;;5040419;28;19908;-70
2023/03/21 08:56:24;;;;;;;;;;;21.20;99.90;;;;;;5037224;28;19912;-69
2023/03/21 08:58:50;;;;;;;;;;;21.10;99.90;;;;;;5040133;28;19916;-67
2023/03/21 09:01:17;;;;;;;;;;;21.20;99.90;;;;;;5038740;28;19927;-66
2023/03/21 09:03:44;;;;;;;;;;;21.20;99.90;;;;;;5039367;28;19917;-68
2023/03/21 09:06:13;;;;;;;;;;;21.20;99.90;;;;;;5038889;28;19923;-67
2023/03/21 09:08:41;;;;;;;;;;;21.20;99.90;;;;;;5038085;28;20591;-68
2023/03/21 09:11:08;;;;;;;;;;;21.20;99.90;;;;;;5039170;28;19994;-66
2023/03/21 09:13:35;;;;;;;;;;;21.20;99.90;;;;;;5038317;28;19913;-64
2023/03/21 09:16:02;;;;;;;;;;;21.20;99.90;;;;;;5039587;28;20385;-67
2023/03/21 09:18:45;;;;;;;;;;;21.20;99.90;;;;;;5037705;28;19913;-69
2023/03/21 09:21:14;;;;;;;;;;;21.20;99.90;;;;;;5038565;28;19995;-66
2023/03/21 09:23:41;;;;;;;;;;;21.30;99.90;;;;;;5038673;28;20400;-67
2023/03/21 09:26:08;;;;;;;;;;;21.30;99.90;;;;;;5039260;28;19913;-67
2023/03/21 09:28:37;;;;;;;;;;;21.30;99.90;;;;;;5038322;28;20452;-67
2023/03/21 09:31:05;;;;;;;;;;;21.30;99.90;;;;;;5039567;28;19919;-68
2023/03/21 09:33:34;;;;;;;;;;;21.30;99.90;;;;;;5038078;28;19940;-67
2023/03/21 09:36:00;;;;;;;;;;;21.20;99.90;;;;;;5039641;28;20712;-66
2023/03/21 09:38:29;;;;;;;;;;;21.20;99.90;;;;;;5037757;28;20618;-66
2023/03/21 09:41:11;;;;;;;;;;;21.20;99.90;;;;;;5039364;28;20175;-68
2023/03/21 09:43:42;;;;;;;;;;;21.10;99.90;;;;;;5037020;28;20036;-67
2023/03/21 09:46:27;;;;;;;;;;;21.10;99.90;;;;;;5039302;28;19913;-68
2023/03/21 09:49:29;;;;;;;;;;;21.10;99.90;;;;;;5039566;28;19916;-69
2023/03/21 09:51:59;;;;;;;;;;;21.10;99.90;;;;;;5016947;28;19913;-67
2023/03/21 09:54:32;;;;;;;;;;;21.20;99.90;;;;;;5030494;28;20361;-67
2023/03/21 09:57:02;;;;;;;;;;;21.20;99.90;;;;;;5039500;28;19921;-66
2023/03/21 09:59:38;;;;;;;;;;;21.20;99.90;;;;;;5037871;28;20390;-65
2023/03/21 10:02:32;;;;;;;;;;;21.20;99.90;;;;;;5038647;28;20687;-68
2023/03/21 10:04:59;;;;;;;;;;;21.20;99.90;;;;;;5039869;28;19944;-67
2023/03/21 10:07:29;;;;;;;;;;;21.20;99.90;;;;;;5040472;28;19913;-66
2023/03/21 10:09:57;;;;;;;;;;;21.20;99.90;;;;;;5040460;28;19917;-69
2023/03/21 10:12:29;;;;;;;;;;;21.10;99.90;;;;;;5037810;28;20219;-68
2023/03/21 10:14:57;;;;;;;;;;;21.20;99.90;;;;;;5042816;28;19932;-68
2023/03/21 10:17:24;;;;;;;;;;;21.20;99.90;;;;;;5039364;28;19913;-68
2023/03/21 10:19:56;;;;;;;;;;;21.20;99.90;;;;;;5037114;28;19975;-68
2023/03/21 10:22:23;;;;;;;;;;;21.10;99.90;;;;;;5039567;28;20036;-69
2023/03/21 10:24:49;;;;;;;;;;;21.10;99.90;;;;;;5039013;28;20432;-69
2023/03/21 10:27:16;;;;;;;;;;;21.10;99.90;;;;;;5041847;28;19913;-67
2023/03/21 10:29:45;;;;;;;;;;;21.10;99.90;;;;;;5040325;28;19916;-66
2023/03/21 10:32:13;;;;;;;;;;;21.10;99.90;;;;;;5042810;28;19912;-67
2023/03/21 10:34:45;;;;;;;;;;;21.10;99.90;;;;;;5040534;28;20132;-66
2023/03/21 10:37:13;;;;;;;;;;;21.10;99.90;;;;;;5042708;28;19916;-68
2023/03/21 10:39:41;;;;;;;;;;;21.10;99.90;;;;;;5041148;28;20423;-68
2023/03/21 10:42:20;;;;;;;;;;;21.10;99.90;;;;;;5042208;28;19927;-69
2023/03/21 10:44:50;;;;;;;;;;;21.00;99.90;;;;;;5041922;28;19908;-66
2023/03/21 10:47:21;;;;;;;;;;;21.10;99.90;;;;;;5042535;28;20356;-67
2023/03/21 10:49:48;;;;;;;;;;;21.10;99.90;;;;;;5041358;28;19962;-68
2023/03/21 10:52:18;;;;;;;;;;;21.10;99.90;;;;;;5041807;28;19913;-67
2023/03/21 10:54:45;;;;;;;;;;;21.10;99.90;;;;;;5041889;28;20381;-67
2023/03/21 10:57:22;;;;;;;;;;;21.10;99.90;;;;;;5042052;28;19951;-67
2023/03/21 11:00:06;;;;;;;;;;;21.10;99.90;;;;;;5040216;28;19931;-66
2023/03/21 11:02:35;;;;;;;;;;;21.10;99.90;;;;;;5041711;28;19927;-66
2023/03/21 11:05:17;;;;;;;;;;;21.10;99.90;;;;;;5041636;28;20019;-67
2023/03/21 11:07:43;;;;;;;;;;;21.10;99.90;;;;;;5040447;28;20354;-66
2023/03/21 11:10:26;;;;;;;;;;;21.20;99.90;;;;;;5041350;28;20175;-69
2023/03/21 11:12:55;;;;;;;;;;;21.20;99.90;;;;;;5040441;28;20003;-70
2023/03/21 11:15:37;;;;;;;;;;;21.10;99.90;;;;;;5042463;28;19962;-67
2023/03/21 11:18:20;;;;;;;;;;;21.10;99.90;;;;;;5040989;28;20280;-67
2023/03/21 11:20:52;;;;;;;;;;;21.00;99.90;;;;;;5039998;28;19909;-69
2023/03/21 11:23:19;;;;;;;;;;;21.00;99.90;;;;;;5041897;28;19927;-70
2023/03/21 11:25:48;;;;;;;;;;;21.00;99.90;;;;;;5040487;28;20717;-67
2023/03/21 11:28:22;;;;;;;;;;;20.90;99.90;;;;;;5041135;28;19913;-65
2023/03/21 11:30:50;;;;;;;;;;;20.90;99.90;;;;;;5041287;28;19999;-67
2023/03/21 11:33:18;;;;;;;;;;;20.80;99.90;;;;;;5040755;28;19983;-64
2023/03/21 11:35:56;;;;;;;;;;;20.90;99.90;;;;;;5040958;28;19971;-66
2023/03/21 11:38:26;;;;;;;;;;;20.90;99.90;;;;;;5021696;28;20263;-65
2023/03/21 11:40:56;;;;;;;;;;;20.90;99.90;;;;;;5028190;28;19920;-67
2023/03/21 11:43:22;;;;;;;;;;;20.90;99.90;;;;;;5038388;28;19924;-67
2023/03/21 11:45:57;;;;;;;;;;;20.90;99.90;;;;;;5020253;28;19909;-68
2023/03/21 11:48:24;;;;;;;;;;;20.90;99.90;;;;;;5037538;28;20361;-68
2023/03/21 11:50:52;;;;;;;;;;;20.90;99.90;;;;;;5039523;28;20022;-67
2023/03/21 11:53:19;;;;;;;;;;;20.90;99.90;;;;;;5040664;28;19913;-68
2023/03/21 11:55:49;;;;;;;;;;;20.90;99.90;;;;;;5040730;28;19909;-68
2023/03/21 11:58:38;;;;;;;;;;;21.00;99.90;;;;;;5041632;28;19963;-69
2023/03/21 12:01:23;;;;;;;;;;;20.90;99.90;;;;;;5040097;28;19933;-69
2023/03/21 12:03:55;;;;;;;;;;;20.90;99.90;;;;;;5040145;28;19971;-67
2023/03/21 12:06:29;;;;;;;;;;;20.80;99.90;;;;;;5040978;28;19908;-65
2023/03/21 12:09:21;;;;;;;;;;;20.80;99.90;;;;;;5040369;28;19913;-68
2023/03/21 12:12:00;;;;;;;;;;;20.70;99.90;;;;;;5030866;28;19939;-67
2023/03/21 12:14:36;;;;;;;;;;;20.70;99.90;;;;;;5040734;28;19916;-66
2023/03/21 12:17:06;;;;;;;;;;;20.60;99.90;;;;;;5040284;28;19913;-67
2023/03/21 12:19:48;;;;;;;;;;;20.60;99.90;;;;;;5041313;28;19917;-68
2023/03/21 12:22:14;;;;;;;;;;;20.60;99.90;;;;;;5039689;28;19931;-68
2023/03/21 12:24:50;;;;;;;;;;;20.50;99.90;;;;;;5033661;28;19960;-69
2023/03/21 12:27:26;;;;;;;;;;;20.50;99.90;;;;;;5023972;28;20014;-66
2023/03/21 12:29:53;;;;;;;;;;;20.40;99.90;;;;;;5021362;28;20334;-66
2023/03/21 12:32:19;;;;;;;;;;;20.50;99.90;;;;;;5039995;28;19959;-66
2023/03/21 12:34:55;;;;;;;;;;;20.50;99.90;;;;;;5040425;28;19948;-67
2023/03/21 12:37:27;;;;;;;;;;;20.50;99.90;;;;;;5040557;28;19909;-65
2023/03/21 12:40:01;;;;;;;;;;;20.50;99.90;;;;;;5039464;28;20362;-68
2023/03/21 12:42:54;;;;;;;;;;;20.50;99.90;;;;;;5038119;28;20524;-67
2023/03/21 12:45:25;;;;;;;;;;;20.50;99.90;;;;;;5037654;28;19912;-65
2023/03/21 12:47:54;;;;;;;;;;;20.50;99.90;;;;;;5032344;28;19909;-69
2023/03/21 12:50:32;;;;;;;;;;;20.50;99.90;;;;;;5023072;28;20333;-67
2023/03/21 12:53:02;;;;;;;;;;;20.50;99.90;;;;;;5039271;28;20749;-67
2023/03/21 12:55:33;;;;;;;;;;;20.60;99.90;;;;;;5039979;28;19936;-66
2023/03/21 12:58:04;;;;;;;;;;;20.60;99.90;;;;;;5038736;28;19912;-67
2023/03/21 13:00:41;;;;;;;;;;;20.60;99.90;;;;;;5039301;28;19977;-67
2023/03/21 13:03:11;;;;;;;;;;;20.60;99.90;;;;;;5038980;28;19917;-67
2023/03/21 13:05:42;;;;;;;;;;;20.60;99.90;;;;;;5040316;28;19920;-66
2023/03/21 13:08:21;;;;;;;;;;;20.60;99.90;;;;;;5039477;28;19962;-67
2023/03/21 13:10:48;;;;;;;;;;;20.50;99.90;;;;;;5039559;28;20298;-66
2023/03/21 13:13:20;;;;;;;;;;;20.50;99.90;;;;;;5039045;28;20263;-65
2023/03/21 13:15:51;;;;;;;;;;;20.50;99.90;;;;;;5039790;28;20426;-67
2023/03/21 13:18:23;;;;;;;;;;;20.50;99.90;;;;;;5039261;28;19992;-65
2023/03/21 13:20:55;;;;;;;;;;;20.60;99.90;;;;;;5038862;28;19923;-65
2023/03/21 13:23:23;;;;;;;;;;;20.50;99.90;;;;;;5039005;28;19920;-66
2023/03/21 13:25:51;;;;;;;;;;;20.50;99.90;;;;;;5039314;28;19909;-71
2023/03/21 13:28:18;;;;;;;;;;;20.50;99.90;;;;;;5038944;28;20328;-69
2023/03/21 13:30:47;;;;;;;;;;;20.40;99.90;;;;;;5040074;28;19915;-66
2023/03/21 13:33:16;;;;;;;;;;;20.40;99.90;;;;;;5039227;28;19995;-65
2023/03/21 13:35:44;;;;;;;;;;;20.50;99.90;;;;;;5040350;28;20346;-67
2023/03/21 13:38:11;;;;;;;;;;;20.60;99.90;;;;;;5038982;28;19963;-68
2023/03/21 13:40:41;;;;;;;;;;;20.60;99.90;;;;;;5038869;28;19927;-67
2023/03/21 13:43:26;;;;;;;;;;;20.50;99.90;;;;;;5039185;28;19986;-66
2023/03/21 13:45:53;;;;;;;;;;;20.50;99.90;;;;;;5025274;28;20003;-65
2023/03/21 13:48:27;;;;;;;;;;;20.60;99.90;;;;;;5039833;28;20011;-68
2023/03/21 13:51:01;;;;;;;;;;;20.60;99.90;;;;;;5042696;28;20380;-64
2023/03/21 13:53:32;;;;;;;;;;;20.60;99.90;;;;;;5043286;28;19999;-67
2023/03/21 13:56:19;;;;;;;;;;;20.70;99.90;;;;;;5043654;28;19944;-65
2023/03/21 13:58:46;;;;;;;;;;;20.70;99.90;;;;;;5043869;28;19956;-67
2023/03/21 14:01:15;;;;;;;;;;;20.70;99.90;;;;;;5042505;28;20003;-68
2023/03/21 14:03:44;;;;;;;;;;;20.70;99.90;;;;;;5043294;28;20384;-64
2023/03/21 14:06:10;;;;;;;;;;;20.70;99.90;;;;;;5042178;28;19958;-66
2023/03/21 14:08:39;;;;;;;;;;;20.70;99.90;;;;;;5042451;28;19923;-65
2023/03/21 14:11:07;;;;;;;;;;;20.70;99.90;;;;;;5042726;28;20374;-65
2023/03/21 14:13:35;;;;;;;;;;;20.70;99.90;;;;;;5042741;28;19915;-66
2023/03/21 14:16:08;;;;;;;;;;;20.70;99.90;;;;;;5042681;28;19917;-66
2023/03/21 14:18:40;;;;;;;;;;;20.70;99.90;;;;;;5042277;28;20015;-66
2023/03/21 14:21:14;;;;;;;;;;;20.60;99.90;;;;;;5042725;28;19920;-65
2023/03/21 14:23:41;;;;;;;;;;;20.60;99.90;;;;;;5042403;28;20313;-62
2023/03/21 14:26:09;;;;;;;;;;;20.60;99.90;;;;;;5041830;28;20022;-65
2023/03/21 14:28:36;;;;;;;;;;;20.60;99.90;;;;;;5042048;28;19913;-66
2023/03/21 14:31:02;;;;;;;;;;;20.60;99.90;;;;;;5042787;28;19920;-65